createdAt,value
2023-03-15T00:00:54.625Z,106.07
2023-03-15T00:01:54.641Z,107.30
2023-03-15T00:02:54.713Z,106.79
2023-03-15T00:03:54.783Z,107.33
2023-03-15T00:04:54.824Z,107.79
2023-03-15T00:05:54.881Z,106.99
2023-03-15T00:06:54.907Z,107.51
2023-03-15T00:07:54.932Z,106.33
2023-03-15T00:10:55.123Z,107.11
2023-03-15T00:11:55.151Z,106.83
2023-03-15T00:12:55.185Z,107.08
2023-03-15T00:13:55.267Z,107.32
2023-03-15T00:14:55.279Z,108.26
2023-03-15T00:15:55.352Z,108.56
2023-03-15T00:16:55.415Z,108.55
2023-03-15T00:17:55.459Z,107.15
2023-03-15T00:18:55.484Z,106.98
2023-03-15T00:19:55.570Z,105.32
2023-03-15T00:20:55.618Z,106.00
2023-03-15T00:21:55.675Z,106.59
2023-03-15T00:22:55.709Z,106.27
2023-03-15T00:23:55.762Z,106.58
2023-03-15T00:24:55.823Z,106.58
2023-03-15T00:25:55.876Z,107.73
2023-03-15T00:26:55.922Z,106.92
2023-03-15T00:27:55.983Z,106.69
2023-03-15T00:28:56.043Z,106.69
2023-03-15T00:29:56.086Z,106.40
2023-03-15T00:30:56.167Z,105.08
2023-03-15T00:31:56.156Z,106.43
2023-03-15T00:32:56.337Z,105.76
2023-03-15T00:33:56.811Z,105.51
2023-03-15T00:34:56.323Z,106.42
2023-03-15T00:40:56.636Z,105.31
2023-03-15T00:41:56.705Z,105.42
2023-03-15T00:42:56.719Z,107.53
2023-03-15T00:43:56.794Z,107.56
2023-03-15T00:44:56.824Z,107.63
2023-03-15T00:45:56.886Z,107.23
2023-03-15T00:46:57.004Z,107.03
2023-03-15T00:47:56.999Z,107.77
2023-03-15T00:48:57.028Z,106.20
2023-03-15T00:49:57.097Z,106.78
2023-03-15T00:50:57.142Z,107.16
2023-03-15T00:51:57.219Z,107.24
2023-03-15T00:52:57.237Z,107.23
2023-03-15T00:53:57.281Z,106.87
2023-03-15T00:54:57.354Z,107.37
2023-03-15T00:55:57.406Z,106.87
2023-03-15T00:56:57.466Z,105.32
2023-03-15T00:57:57.489Z,105.88
2023-03-15T00:58:57.581Z,106.04
2023-03-15T00:59:57.631Z,104.82
2023-03-15T01:06:57.978Z,104.61
2023-03-15T01:07:58.020Z,103.26
2023-03-15T01:08:58.050Z,104.68
2023-03-15T01:09:58.089Z,102.69
2023-03-15T01:10:58.818Z,104.46
2023-03-15T01:11:58.184Z,103.99
2023-03-15T01:12:58.244Z,103.80
2023-03-15T01:13:58.297Z,104.68
2023-03-15T01:14:58.357Z,103.60
2023-03-15T01:15:58.420Z,103.35
2023-03-15T01:16:58.447Z,102.90
2023-03-15T01:17:58.504Z,103.16
2023-03-15T01:18:58.536Z,102.89
2023-03-15T01:19:58.575Z,101.90
2023-03-15T01:20:58.623Z,101.72
2023-03-15T01:21:58.711Z,102.69
2023-03-15T01:22:58.739Z,101.98
2023-03-15T01:23:58.789Z,101.85
2023-03-15T01:24:58.806Z,101.83
2023-03-15T01:25:58.883Z,101.91
2023-03-15T01:26:58.933Z,101.85
2023-03-15T01:27:58.961Z,101.43
2023-03-15T01:28:59.024Z,101.53
2023-03-15T01:29:59.084Z,101.61
2023-03-15T01:31:00.092Z,102.13
2023-03-15T01:31:59.184Z,100.29
2023-03-15T01:32:59.274Z,99.11
2023-03-15T01:33:59.240Z,100.57
2023-03-15T01:34:59.295Z,99.69
2023-03-15T01:35:59.417Z,99.27
2023-03-15T01:36:59.523Z,99.07
2023-03-15T01:37:59.439Z,99.77
2023-03-15T01:38:59.496Z,99.15
2023-03-15T01:39:59.530Z,98.23
2023-03-15T01:40:59.621Z,98.47
2023-03-15T01:41:59.661Z,99.07
2023-03-15T01:42:59.698Z,98.46
2023-03-15T01:43:59.779Z,101.47
2023-03-15T01:44:59.837Z,102.82
2023-03-15T01:45:59.893Z,103.31
2023-03-15T01:47:00.009Z,103.58
2023-03-15T01:47:59.954Z,103.21
2023-03-15T01:49:00.038Z,101.88
2023-03-15T01:50:00.106Z,102.20
2023-03-15T01:51:00.135Z,101.80
2023-03-15T01:52:00.162Z,102.58
2023-03-15T01:53:00.196Z,101.25
2023-03-15T01:54:00.293Z,101.80
2023-03-15T01:55:00.312Z,99.24
2023-03-15T01:56:00.341Z,100.70
2023-03-15T01:57:00.427Z,100.55
2023-03-15T01:58:00.480Z,101.16
2023-03-15T01:59:00.528Z,99.09
2023-03-15T02:00:00.589Z,99.07
2023-03-15T02:01:00.662Z,98.13
2023-03-15T02:02:00.673Z,97.62
2023-03-15T02:03:00.715Z,98.13
2023-03-15T02:04:00.785Z,98.11
2023-03-15T02:05:00.782Z,99.58
2023-03-15T02:06:00.863Z,99.87
2023-03-15T02:07:00.911Z,100.05
2023-03-15T02:08:00.936Z,99.38
2023-03-15T02:09:00.993Z,100.30
2023-03-15T02:10:01.120Z,99.88
2023-03-15T02:11:01.093Z,99.68
2023-03-15T02:12:01.178Z,99.92
2023-03-15T02:13:01.280Z,99.75
2023-03-15T02:14:01.303Z,99.63
2023-03-15T02:16:01.426Z,100.02
2023-03-15T02:17:01.395Z,99.19
2023-03-15T02:18:01.450Z,101.53
2023-03-15T02:19:01.497Z,100.49
2023-03-15T02:20:01.553Z,99.97
2023-03-15T02:21:01.580Z,98.89
2023-03-15T02:22:01.667Z,98.80
2023-03-15T02:23:01.707Z,99.08
2023-03-15T02:24:01.741Z,99.05
2023-03-15T02:25:01.794Z,96.99
2023-03-15T02:26:01.852Z,98.51
2023-03-15T02:27:01.936Z,99.25
2023-03-15T02:28:01.991Z,98.73
2023-03-15T02:29:02.005Z,99.58
2023-03-15T02:30:02.084Z,99.15
2023-03-15T02:31:02.135Z,98.59
2023-03-15T02:32:02.217Z,98.66
2023-03-15T02:33:02.235Z,98.58
2023-03-15T02:34:02.300Z,100.79
2023-03-15T02:35:02.374Z,100.78
2023-03-15T02:36:02.460Z,99.83
2023-03-15T02:37:02.438Z,101.06
2023-03-15T02:38:02.507Z,101.85
2023-03-15T02:39:02.536Z,101.42
2023-03-15T02:40:02.573Z,101.16
2023-03-15T02:41:02.612Z,101.03
2023-03-15T02:42:02.685Z,99.09
2023-03-15T02:43:02.694Z,99.26
2023-03-15T02:44:02.816Z,99.83
2023-03-15T02:45:02.840Z,99.02
2023-03-15T02:46:02.888Z,99.11
2023-03-15T02:47:02.892Z,101.59
2023-03-15T02:48:02.925Z,101.39
2023-03-15T02:49:03.014Z,102.29
2023-03-15T02:50:03.065Z,102.19
2023-03-15T02:51:03.123Z,100.66
2023-03-15T02:52:03.145Z,100.41
2023-03-15T02:53:03.207Z,99.48
2023-03-15T02:54:03.237Z,100.13
2023-03-15T02:55:03.325Z,101.85
2023-03-15T02:56:03.365Z,102.03
2023-03-15T02:57:03.429Z,100.79
2023-03-15T02:58:03.491Z,102.67
2023-03-15T02:59:03.517Z,103.59
2023-03-15T03:00:03.569Z,101.32
2023-03-15T03:01:03.642Z,91.38
2023-03-15T03:02:03.723Z,86.85
2023-03-15T03:03:03.756Z,82.09
2023-03-15T03:04:03.768Z,78.05
2023-03-15T03:05:03.901Z,78.80
2023-03-15T03:06:03.849Z,80.92
2023-03-15T03:07:03.921Z,93.55
2023-03-15T03:08:03.969Z,95.76
2023-03-15T03:09:04.062Z,96.66
2023-03-15T03:10:04.095Z,96.11
2023-03-15T03:11:04.127Z,93.90
2023-03-15T03:12:04.247Z,94.86
2023-03-15T03:13:04.281Z,95.85
2023-03-15T03:14:04.315Z,95.70
2023-03-15T03:15:04.350Z,92.23
2023-03-15T03:16:04.401Z,91.71
2023-03-15T03:17:04.451Z,91.88
2023-03-15T03:18:04.481Z,91.66
2023-03-15T03:19:04.532Z,93.92
2023-03-15T03:20:04.580Z,95.17
2023-03-15T03:21:04.647Z,96.25
2023-03-15T03:22:04.703Z,95.29
2023-03-15T03:23:04.756Z,93.89
2023-03-15T03:24:04.814Z,93.91
2023-03-15T03:25:04.830Z,92.13
2023-03-15T03:26:04.880Z,94.00
2023-03-15T03:27:04.946Z,92.97
2023-03-15T03:28:04.959Z,94.71
2023-03-15T03:29:05.010Z,95.36
2023-03-15T03:30:05.062Z,95.76
2023-03-15T03:31:05.157Z,93.87
2023-03-15T03:32:05.134Z,94.64
2023-03-15T03:33:05.206Z,94.97
2023-03-15T03:34:05.247Z,94.88
2023-03-15T03:35:05.334Z,92.94
2023-03-15T03:36:05.392Z,93.86
2023-03-15T03:37:05.408Z,95.48
2023-03-15T03:38:05.454Z,95.09
2023-03-15T03:39:05.476Z,95.83
2023-03-15T03:40:05.559Z,96.63
2023-03-15T03:41:05.571Z,93.05
2023-03-15T03:42:05.630Z,91.81
2023-03-15T03:43:05.705Z,89.48
2023-03-15T03:44:05.739Z,89.03
2023-03-15T03:45:05.833Z,88.70
2023-03-15T03:46:05.841Z,91.88
2023-03-15T03:47:05.870Z,94.04
2023-03-15T03:48:05.940Z,95.46
2023-03-15T03:49:06.008Z,94.68
2023-03-15T03:50:06.000Z,92.95
2023-03-15T03:51:06.094Z,95.18
2023-03-15T03:52:06.134Z,94.90
2023-03-15T03:53:06.205Z,95.16
2023-03-15T03:54:06.244Z,95.80
2023-03-15T03:55:06.280Z,96.43
2023-03-15T03:56:06.336Z,92.76
2023-03-15T03:57:06.407Z,92.93
2023-03-15T03:58:06.447Z,92.02
2023-03-15T03:59:06.494Z,92.19
2023-03-15T04:00:06.564Z,92.83
2023-03-15T04:01:06.613Z,95.18
2023-03-15T04:02:06.689Z,97.75
2023-03-15T04:03:06.696Z,97.01
2023-03-15T04:04:06.732Z,98.94
2023-03-15T04:05:06.809Z,99.04
2023-03-15T04:06:06.850Z,98.35
2023-03-15T04:07:06.932Z,100.85
2023-03-15T04:08:06.922Z,101.06
2023-03-15T04:09:06.989Z,98.77
2023-03-15T04:10:07.024Z,97.32
2023-03-15T04:11:07.107Z,93.77
2023-03-15T04:12:07.195Z,96.16
2023-03-15T04:13:07.228Z,96.65
2023-03-15T04:14:07.298Z,94.42
2023-03-15T04:15:07.340Z,91.54
2023-03-15T04:16:07.465Z,90.71
2023-03-15T04:17:07.423Z,90.74
2023-03-15T04:18:07.511Z,89.12
2023-03-15T04:19:07.561Z,88.65
2023-03-15T04:20:07.616Z,89.18
2023-03-15T04:21:07.662Z,88.67
2023-03-15T04:22:07.695Z,87.09
2023-03-15T04:23:07.751Z,87.52
2023-03-15T04:24:07.769Z,87.48
2023-03-15T04:25:07.874Z,88.11
2023-03-15T04:26:07.895Z,85.73
2023-03-15T04:27:07.929Z,84.86
2023-03-15T04:28:07.936Z,83.54
2023-03-15T04:29:08.017Z,81.98
2023-03-15T04:30:08.070Z,81.32
2023-03-15T04:31:08.096Z,81.45
2023-03-15T04:32:08.126Z,82.06
2023-03-15T04:33:08.178Z,84.31
2023-03-15T04:34:08.184Z,89.71
2023-03-15T04:35:08.270Z,83.78
2023-03-15T04:36:08.296Z,78.74
2023-03-15T04:37:08.288Z,76.69
2023-03-15T04:38:08.339Z,78.88
2023-03-15T04:39:08.399Z,78.71
2023-03-15T04:40:08.436Z,79.79
2023-03-15T04:41:08.452Z,78.43
2023-03-15T04:42:08.487Z,77.88
2023-03-15T04:43:08.510Z,79.82
2023-03-15T04:44:08.534Z,78.98
2023-03-15T04:45:08.575Z,76.08
2023-03-15T04:46:08.616Z,77.43
2023-03-15T04:47:08.676Z,77.86
2023-03-15T04:48:08.670Z,77.86
2023-03-15T04:49:08.680Z,77.97
2023-03-15T04:50:08.736Z,76.95
2023-03-15T04:51:08.737Z,77.79
2023-03-15T04:52:08.766Z,77.28
2023-03-15T04:53:08.808Z,78.09
2023-03-15T04:54:08.801Z,80.63
2023-03-15T04:55:08.854Z,79.34
2023-03-15T04:56:08.858Z,79.04
2023-03-15T04:57:08.876Z,78.68
2023-03-15T04:58:08.955Z,79.56
2023-03-15T04:59:08.958Z,80.73
2023-03-15T05:00:08.996Z,79.26
2023-03-15T05:01:09.048Z,80.28
2023-03-15T05:02:09.094Z,80.55
2023-03-15T05:03:09.044Z,79.80
2023-03-15T05:04:09.137Z,79.07
2023-03-15T05:05:09.116Z,81.40
2023-03-15T05:06:09.133Z,82.03
2023-03-15T05:07:09.180Z,81.32
2023-03-15T05:08:09.217Z,80.96
2023-03-15T05:09:09.245Z,82.54
2023-03-15T05:10:09.261Z,81.86
2023-03-15T05:11:09.300Z,81.44
2023-03-15T05:12:09.347Z,79.90
2023-03-15T05:13:09.352Z,81.58
2023-03-15T05:14:09.385Z,79.68
2023-03-15T05:15:09.410Z,80.83
2023-03-15T05:56:10.493Z,83.03
2023-03-15T06:01:17.646Z,83.65
2023-03-15T06:11:10.592Z,86.84
2023-03-15T06:46:17.534Z,58.82
2023-03-15T06:49:10.416Z,49.14
2023-03-15T08:07:10.514Z,35.90
2023-03-15T08:10:10.508Z,35.61
2023-03-15T08:15:10.617Z,46.92
2023-03-15T08:16:10.644Z,52.56
2023-03-15T08:17:11.015Z,61.01
2023-03-15T08:18:10.627Z,78.58
2023-03-15T08:19:10.670Z,97.98
2023-03-15T08:20:10.753Z,112.91
2023-03-15T08:21:10.792Z,128.37
2023-03-15T08:22:10.849Z,139.43
2023-03-15T08:23:10.800Z,146.19
2023-03-15T08:24:10.843Z,152.96
2023-03-15T08:25:10.880Z,158.98
2023-03-15T08:26:10.850Z,162.74
2023-03-15T08:27:10.924Z,168.70
2023-03-15T08:28:10.980Z,173.28
2023-03-15T08:29:10.991Z,177.90
2023-03-15T08:30:11.078Z,181.86
2023-03-15T08:31:11.187Z,180.53
2023-03-15T08:32:11.540Z,183.98
2023-03-15T08:33:11.276Z,186.08
2023-03-15T08:34:11.313Z,187.28
2023-03-15T08:35:12.040Z,180.53
2023-03-15T08:36:11.475Z,184.92
2023-03-15T08:41:11.751Z,191.49
2023-03-15T08:42:11.782Z,185.31
2023-03-15T08:43:12.063Z,188.94
2023-03-15T08:44:12.074Z,187.11
2023-03-15T08:45:11.980Z,187.13
2023-03-15T08:46:12.021Z,190.08
2023-03-15T08:47:12.052Z,193.72
2023-03-15T08:48:12.549Z,192.19
2023-03-15T08:49:12.167Z,186.19
2023-03-15T08:50:12.231Z,184.46
2023-03-15T08:51:12.191Z,179.02
2023-03-15T08:52:12.238Z,173.00
2023-03-15T08:53:12.276Z,170.27
2023-03-15T08:54:12.345Z,174.84
2023-03-15T08:55:12.365Z,173.52
2023-03-15T08:56:12.392Z,180.65
2023-03-15T08:57:12.447Z,177.79
2023-03-15T08:58:12.577Z,180.59
2023-03-15T08:59:19.213Z,180.62
2023-03-15T09:00:13.422Z,180.84
2023-03-15T09:01:12.426Z,177.82
2023-03-15T09:02:12.444Z,174.63
2023-03-15T09:03:12.374Z,174.94
2023-03-15T09:04:12.467Z,173.28
2023-03-15T09:05:12.373Z,165.81
2023-03-15T09:06:12.353Z,151.87
2023-03-15T09:07:12.382Z,123.37
2023-03-15T09:08:12.374Z,109.08
2023-03-15T09:09:12.334Z,101.45
2023-03-15T09:10:12.358Z,95.13
2023-03-15T09:11:12.320Z,91.97
2023-03-15T09:12:12.335Z,93.31
2023-03-15T09:13:12.308Z,81.99
2023-03-15T09:14:12.309Z,87.01
2023-03-15T09:15:12.325Z,96.39
2023-03-15T09:16:12.338Z,89.82
2023-03-15T09:17:12.528Z,88.63
2023-03-15T09:18:12.535Z,84.62
2023-03-15T09:19:12.558Z,79.64
2023-03-15T09:20:12.613Z,77.62
2023-03-15T09:21:12.662Z,70.05
2023-03-15T09:22:23.485Z,68.10
2023-03-15T09:23:14.043Z,56.86
2023-03-15T09:24:12.720Z,54.56
2023-03-15T09:25:12.682Z,58.84
2023-03-15T09:26:12.707Z,52.61
2023-03-15T09:27:12.702Z,53.18
2023-03-15T09:28:13.101Z,64.44
2023-03-15T09:29:12.672Z,74.08
2023-03-15T09:30:12.696Z,71.79
2023-03-15T09:31:12.716Z,78.38
2023-03-15T09:32:12.719Z,109.73
2023-03-15T09:33:13.105Z,125.99
2023-03-15T09:34:12.820Z,148.04
2023-03-15T09:37:13.007Z,163.29
2023-03-15T09:38:13.057Z,159.71
2023-03-15T09:39:13.075Z,156.28
2023-03-15T09:40:13.135Z,162.93
2023-03-15T09:41:13.194Z,162.78
2023-03-15T09:42:13.186Z,158.31
2023-03-15T09:43:13.587Z,142.02
2023-03-15T09:44:13.316Z,152.35
2023-03-15T09:45:13.360Z,150.94
2023-03-15T09:46:13.451Z,152.83
2023-03-15T09:47:13.432Z,147.08
2023-03-15T09:48:13.491Z,143.74
2023-03-15T09:49:13.521Z,139.14
2023-03-15T09:50:13.573Z,142.04
2023-03-15T09:51:13.601Z,145.20
2023-03-15T09:52:13.639Z,142.80
2023-03-15T09:53:14.054Z,140.66
2023-03-15T09:54:13.758Z,144.95
2023-03-15T09:55:13.749Z,104.93
2023-03-15T09:56:13.797Z,78.80
2023-03-15T09:57:13.866Z,50.38
2023-03-15T09:58:13.914Z,25.73
2023-03-15T09:59:14.586Z,28.88
2023-03-15T10:00:14.029Z,36.36
2023-03-15T10:01:14.142Z,25.88
2023-03-15T10:02:14.105Z,26.67
2023-03-15T10:03:14.160Z,53.37
2023-03-15T10:05:14.128Z,52.27
2023-03-15T10:06:14.136Z,44.52
2023-03-15T10:07:14.137Z,33.81
2023-03-15T10:08:14.107Z,27.65
2023-03-15T10:09:14.128Z,27.03
2023-03-15T10:10:14.231Z,21.33
2023-03-15T10:11:14.204Z,25.57
2023-03-15T10:12:14.178Z,37.33
2023-03-15T10:13:14.273Z,25.10
2023-03-15T10:14:14.298Z,19.83
2023-03-15T10:15:14.305Z,32.95
2023-03-15T10:16:14.391Z,32.07
2023-03-15T10:21:14.481Z,39.50
2023-03-15T10:22:14.560Z,24.66
2023-03-15T10:23:14.583Z,25.98
2023-03-15T10:24:14.619Z,29.72
2023-03-15T10:25:14.627Z,27.44
2023-03-15T10:26:14.680Z,36.69
2023-03-15T10:27:14.709Z,33.18
2023-03-15T10:28:14.746Z,40.41
2023-03-15T10:29:14.748Z,39.70
2023-03-15T10:30:14.789Z,33.97
2023-03-15T10:31:21.594Z,39.62
2023-03-15T10:32:15.823Z,39.73
2023-03-15T10:33:14.771Z,34.01
2023-03-15T10:34:14.782Z,42.98
2023-03-15T10:35:14.785Z,58.19
2023-03-15T10:36:14.774Z,86.91
2023-03-15T10:37:14.727Z,106.05
2023-03-15T10:38:14.735Z,118.54
2023-03-15T10:39:15.105Z,125.43
2023-03-15T10:41:17.877Z,141.29
2023-03-15T10:42:15.713Z,141.68
2023-03-15T10:43:14.701Z,143.83
2023-03-15T10:44:15.107Z,149.13
2023-03-15T10:45:14.680Z,160.90
2023-03-15T10:46:14.761Z,176.53
2023-03-15T10:47:23.474Z,181.53
2023-03-15T10:48:15.664Z,180.44
2023-03-15T10:49:15.106Z,186.97
2023-03-15T10:50:14.664Z,202.35
2023-03-15T10:51:14.651Z,205.69
2023-03-15T10:52:14.649Z,218.39
2023-03-15T10:56:14.614Z,172.10
2023-03-15T10:57:14.626Z,162.95
2023-03-15T10:58:14.729Z,157.44
2023-03-15T10:59:14.776Z,148.20
2023-03-15T11:00:14.801Z,135.44
2023-03-15T11:01:14.911Z,133.92
2023-03-15T11:02:14.959Z,133.87
2023-03-15T11:03:15.003Z,127.22
2023-03-15T11:04:15.086Z,140.00
2023-03-15T11:05:15.137Z,140.44
2023-03-15T11:06:15.199Z,134.72
2023-03-15T11:07:15.190Z,137.79
2023-03-15T11:08:15.153Z,139.96
2023-03-15T11:09:15.215Z,136.60
2023-03-15T11:10:15.224Z,140.40
2023-03-15T11:11:15.227Z,151.17
2023-03-15T11:12:16.119Z,149.43
2023-03-15T11:13:15.211Z,149.47
2023-03-15T11:14:15.240Z,141.65
2023-03-15T11:15:15.240Z,139.17
2023-03-15T11:16:15.329Z,135.44
2023-03-15T11:17:15.264Z,134.52
2023-03-15T11:18:15.263Z,137.94
2023-03-15T11:19:15.262Z,141.15
2023-03-15T11:20:15.230Z,138.84
2023-03-15T11:21:15.249Z,131.99
2023-03-15T11:22:15.247Z,137.01
2023-03-15T11:23:15.212Z,143.49
2023-03-15T11:24:15.633Z,131.94
2023-03-15T11:25:15.328Z,125.35
2023-03-15T11:26:29.372Z,129.66
2023-03-15T11:27:16.224Z,127.27
2023-03-15T11:28:15.241Z,123.71
2023-03-15T11:29:15.233Z,123.46
2023-03-15T11:30:15.212Z,123.28
2023-03-15T11:31:15.301Z,119.13
2023-03-15T11:32:15.210Z,111.49
2023-03-15T11:33:15.204Z,114.72
2023-03-15T11:45:15.092Z,90.58
2023-03-15T11:46:15.169Z,90.30
2023-03-15T11:47:15.064Z,90.84
2023-03-15T11:48:15.070Z,93.01
2023-03-15T11:49:15.080Z,86.62
2023-03-15T11:50:15.239Z,86.43
2023-03-15T11:51:15.064Z,82.20
2023-03-15T11:52:15.044Z,89.78
2023-03-15T11:53:15.040Z,87.54
2023-03-15T11:54:15.009Z,82.57
2023-03-15T11:55:15.033Z,83.41
2023-03-15T11:56:15.019Z,77.39
2023-03-15T11:57:15.023Z,66.22
2023-03-15T11:58:15.037Z,57.23
2023-03-15T11:59:15.114Z,46.69
2023-03-15T12:00:14.970Z,49.23
2023-03-15T12:01:14.971Z,41.86
2023-03-15T12:02:15.042Z,32.07
2023-03-15T12:03:15.081Z,31.54
2023-03-15T12:04:15.874Z,25.78
2023-03-15T12:05:18.327Z,22.18
2023-03-15T12:06:15.152Z,25.00
2023-03-15T12:07:15.505Z,27.94
2023-03-15T12:08:15.103Z,27.58
2023-03-15T12:09:15.072Z,31.80
2023-03-15T12:10:15.130Z,25.40
2023-03-15T12:11:15.072Z,28.69
2023-03-15T12:12:15.091Z,34.70
2023-03-15T12:13:15.079Z,32.22
2023-03-15T12:14:15.074Z,31.78
2023-03-15T12:15:15.288Z,37.86
2023-03-15T12:16:15.020Z,36.43
2023-03-15T12:17:15.038Z,34.13
2023-03-15T12:18:15.023Z,38.29
2023-03-15T12:19:15.027Z,42.75
2023-03-15T12:20:15.127Z,37.88
2023-03-15T12:21:15.025Z,46.40
2023-03-15T12:22:14.994Z,51.74
2023-03-15T12:23:14.992Z,49.80
2023-03-15T12:24:14.988Z,57.36
2023-03-15T12:25:14.980Z,57.91
2023-03-15T12:26:14.981Z,63.67
2023-03-15T12:27:14.980Z,66.70
2023-03-15T12:28:14.973Z,59.75
2023-03-15T12:29:14.946Z,57.76
2023-03-15T12:30:15.169Z,63.84
2023-03-15T12:31:15.079Z,59.50
2023-03-15T12:32:14.994Z,62.82
2023-03-15T12:33:14.963Z,84.40
2023-03-15T12:34:14.932Z,122.40
2023-03-15T12:35:15.611Z,132.73
2023-03-15T12:36:14.878Z,148.52
2023-03-15T12:37:14.882Z,151.97
2023-03-15T12:38:14.893Z,126.31
2023-03-15T12:39:14.863Z,116.38
2023-03-15T12:40:14.961Z,118.77
2023-03-15T12:41:14.880Z,116.38
2023-03-15T12:42:14.862Z,112.53
2023-03-15T12:43:14.850Z,111.41
2023-03-15T12:44:14.854Z,114.34
2023-03-15T12:45:14.840Z,116.87
2023-03-15T12:46:14.909Z,115.15
2023-03-15T12:47:14.796Z,111.55
2023-03-15T12:48:14.794Z,116.79
2023-03-15T12:49:14.864Z,111.06
2023-03-15T12:50:14.873Z,104.75
2023-03-15T12:51:14.932Z,111.17
2023-03-15T12:52:14.911Z,112.66
2023-03-15T12:53:14.955Z,111.31
2023-03-15T12:54:15.005Z,89.77
2023-03-15T12:55:15.007Z,89.42
2023-03-15T12:56:15.052Z,92.67
2023-03-15T12:57:15.044Z,98.87
2023-03-15T12:58:15.133Z,102.37
2023-03-15T12:59:15.149Z,95.73
2023-03-15T13:00:15.177Z,86.27
2023-03-15T13:01:15.184Z,85.01
2023-03-15T13:02:15.208Z,84.20
2023-03-15T13:03:15.297Z,82.17
2023-03-15T13:04:15.306Z,80.64
2023-03-15T13:05:15.348Z,75.17
2023-03-15T13:06:15.387Z,73.25
2023-03-15T13:07:15.417Z,80.95
2023-03-15T13:08:15.479Z,86.31
2023-03-15T13:09:15.507Z,90.31
2023-03-15T13:10:15.600Z,93.22
2023-03-15T13:11:15.613Z,92.77
2023-03-15T13:12:15.652Z,94.85
2023-03-15T13:13:15.678Z,99.18
2023-03-15T13:14:15.715Z,99.23
2023-03-15T13:15:15.765Z,87.04
2023-03-15T13:16:15.787Z,72.88
2023-03-15T13:17:15.806Z,63.62
2023-03-15T13:18:15.889Z,62.97
2023-03-15T13:19:15.879Z,64.57
2023-03-15T13:20:15.973Z,69.99
2023-03-15T13:21:16.027Z,72.06
2023-03-15T13:22:16.045Z,67.77
2023-03-15T13:23:16.132Z,68.44
2023-03-15T13:24:16.152Z,72.00
2023-03-15T13:25:16.199Z,71.78
2023-03-15T13:26:16.285Z,70.90
2023-03-15T13:27:16.260Z,74.60
2023-03-15T13:28:16.317Z,59.15
2023-03-15T13:29:16.347Z,53.79
2023-03-15T13:30:16.621Z,51.71
2023-03-15T13:31:16.456Z,41.73
2023-03-15T13:32:16.452Z,51.96
2023-03-15T13:33:16.507Z,57.84
2023-03-15T13:34:16.553Z,55.41
2023-03-15T13:35:16.565Z,51.26
2023-03-15T13:36:16.629Z,54.29
2023-03-15T13:37:16.671Z,55.68
2023-03-15T13:38:16.672Z,56.08
2023-03-15T13:39:16.751Z,58.83
2023-03-15T13:40:16.751Z,65.53
2023-03-15T13:41:16.787Z,54.79
2023-03-15T13:42:16.830Z,41.70
2023-03-15T13:43:16.873Z,42.62
2023-03-15T13:44:16.940Z,43.98
2023-03-15T13:45:16.998Z,41.03
2023-03-15T13:46:17.090Z,47.55
2023-03-15T13:47:17.149Z,49.58
2023-03-15T13:48:17.210Z,58.13
2023-03-15T13:49:17.255Z,63.53
2023-03-15T13:50:17.347Z,68.52
2023-03-15T13:51:17.377Z,74.56
2023-03-15T13:52:17.402Z,60.83
2023-03-15T13:53:17.466Z,41.01
2023-03-15T13:54:17.512Z,36.41
2023-03-15T13:55:17.672Z,51.08
2023-03-15T13:56:17.621Z,67.44
2023-03-15T13:57:17.644Z,99.26
2023-03-15T13:58:17.713Z,123.75
2023-03-15T13:59:17.786Z,143.77
2023-03-15T14:00:17.849Z,163.65
2023-03-15T14:01:17.859Z,179.08
2023-03-15T14:02:17.883Z,188.57
2023-03-15T14:03:17.994Z,192.08
2023-03-15T14:04:17.946Z,192.82
2023-03-15T14:05:17.961Z,183.32
2023-03-15T14:06:17.996Z,192.81
2023-03-15T14:07:18.005Z,203.67
2023-03-15T14:08:18.005Z,211.81
2023-03-15T14:09:18.008Z,218.23
2023-03-15T14:10:18.017Z,222.32
2023-03-15T14:11:18.070Z,223.03
2023-03-15T14:12:17.993Z,221.07
2023-03-15T14:13:17.960Z,219.85
2023-03-15T14:14:17.977Z,219.28
2023-03-15T14:15:18.024Z,220.52
2023-03-15T14:16:18.038Z,206.04
2023-03-15T14:17:18.107Z,205.52
2023-03-15T14:18:18.014Z,217.65
2023-03-15T14:19:17.999Z,215.46
2023-03-15T14:20:18.178Z,206.18
2023-03-15T14:21:17.981Z,209.10
2023-03-15T14:22:18.012Z,221.06
2023-03-15T14:23:18.026Z,219.73
2023-03-15T14:24:17.984Z,218.08
2023-03-15T14:25:18.029Z,216.25
2023-03-15T14:26:18.138Z,207.23
2023-03-15T14:27:18.027Z,211.42
2023-03-15T14:28:18.058Z,216.20
2023-03-15T14:29:18.072Z,224.06
2023-03-15T14:30:18.090Z,231.12
2023-03-15T14:31:18.157Z,238.90
2023-03-15T14:32:18.184Z,242.63
2023-03-15T14:33:18.257Z,245.05
2023-03-15T14:34:18.280Z,245.05
2023-03-15T14:35:18.378Z,245.65
2023-03-15T14:36:18.428Z,247.57
2023-03-15T14:37:18.476Z,241.93
2023-03-15T14:38:18.486Z,231.22
2023-03-15T14:39:18.586Z,239.34
2023-03-15T14:40:18.608Z,244.47
2023-03-15T14:41:18.688Z,246.52
2023-03-15T14:42:18.725Z,244.94
2023-03-15T14:43:18.780Z,242.77
2023-03-15T14:44:18.805Z,242.50
2023-03-15T14:45:18.871Z,234.64
2023-03-15T14:46:18.952Z,235.94
2023-03-15T14:47:18.951Z,232.70
2023-03-15T14:48:19.031Z,237.70
2023-03-15T14:49:19.086Z,244.01
2023-03-15T14:50:19.189Z,245.61
2023-03-15T14:51:19.178Z,248.62
2023-03-15T14:52:19.267Z,248.57
2023-03-15T14:53:19.300Z,249.82
2023-03-15T14:54:19.359Z,250.00
2023-03-15T14:55:19.423Z,249.44
2023-03-15T14:56:20.036Z,249.97
2023-03-15T14:57:19.537Z,250.00
2023-03-15T14:58:19.584Z,249.44
2023-03-15T14:59:19.609Z,242.41
2023-03-15T15:00:19.708Z,242.07
2023-03-15T15:01:19.809Z,209.87
2023-03-15T15:02:19.896Z,200.63
2023-03-15T15:03:19.881Z,202.10
2023-03-15T15:04:19.923Z,218.28
2023-03-15T15:05:20.010Z,228.08
2023-03-15T15:06:20.042Z,235.58
2023-03-15T15:07:20.107Z,238.11
2023-03-15T15:08:20.210Z,240.06
2023-03-15T15:09:20.220Z,241.32
2023-03-15T15:10:20.301Z,242.35
2023-03-15T15:11:20.361Z,238.77
2023-03-15T15:12:20.407Z,242.65
2023-03-15T15:13:20.460Z,241.78
2023-03-15T15:14:20.497Z,241.24
2023-03-15T15:15:20.530Z,244.66
2023-03-15T15:16:20.718Z,245.67
2023-03-15T15:17:20.629Z,248.83
2023-03-15T15:18:20.664Z,250.00
2023-03-15T15:22:20.794Z,249.61
2023-03-15T15:23:20.835Z,249.86
2023-03-15T15:24:20.864Z,249.15
2023-03-15T15:25:20.900Z,249.95
2023-03-15T15:26:20.923Z,250.00
2023-03-15T15:27:20.962Z,249.58
2023-03-15T15:28:33.732Z,249.94
2023-03-15T15:29:21.976Z,249.99
2023-03-15T15:30:20.975Z,249.87
2023-03-15T15:31:21.042Z,249.86
2023-03-15T15:32:20.955Z,248.56
2023-03-15T15:33:20.978Z,249.18
2023-03-15T15:34:20.970Z,250.00
2023-03-15T15:35:20.939Z,249.90
2023-03-15T15:36:20.951Z,249.62
2023-03-15T15:37:20.944Z,249.77
2023-03-15T15:38:20.907Z,249.95
2023-03-15T15:39:20.901Z,249.93
2023-03-15T15:40:20.894Z,249.73
2023-03-15T15:41:20.908Z,249.94
2023-03-15T15:42:20.897Z,249.57
2023-03-15T15:43:20.880Z,249.87
2023-03-15T15:44:20.898Z,249.97
2023-03-15T15:45:20.877Z,249.30
2023-03-15T15:46:20.935Z,250.00
2023-03-15T15:47:20.852Z,249.21
2023-03-15T15:48:20.913Z,248.27
2023-03-15T15:49:20.833Z,249.47
2023-03-15T15:50:20.811Z,249.65
2023-03-15T15:51:20.812Z,250.14
2023-03-15T15:52:20.840Z,249.64
2023-03-15T15:53:20.802Z,250.00
2023-03-15T15:54:20.810Z,249.99
2023-03-15T15:55:20.802Z,233.14
2023-03-15T15:56:20.778Z,225.49
2023-03-15T15:57:20.797Z,227.20
2023-03-15T15:58:20.807Z,233.52
2023-03-15T15:59:20.793Z,235.56
2023-03-15T16:00:20.805Z,197.80
2023-03-15T16:01:20.898Z,196.23
2023-03-15T16:02:21.058Z,196.22
2023-03-15T16:03:20.935Z,201.42
2023-03-15T16:04:20.978Z,197.82
2023-03-15T16:05:21.032Z,203.28
2023-03-15T16:06:21.223Z,209.43
2023-03-15T16:07:21.139Z,213.50
2023-03-15T16:08:21.200Z,222.00
2023-03-15T16:09:21.256Z,226.14
2023-03-15T16:10:21.295Z,227.19
2023-03-15T16:11:21.333Z,226.28
2023-03-15T16:12:21.416Z,226.06
2023-03-15T16:13:21.529Z,227.34
2023-03-15T16:14:21.452Z,228.39
2023-03-15T16:15:21.518Z,225.09